Airfield :
LOGIN :

Register | Disclaimer

   EN    FR    IT 

 










Legend :    VFR   Marginal VFR   IFR   Intensive IFR   Very Intensive IFR
Visi :
Ceiling :
>= 8 km
>= 3000ft
5 to 8 km
1000 to 3000 ft
1500m to 5 km
500 to 1000 ft
800 to 1500m
200 to 500 ft
< 800m
< 200 ft
Symbols :   Thunderstorms  Fog  Heavy snow  Heavy precipitations  Wind > 20 kt
SIGMETs :     Misc.  Thunderstorms  Icing  Turbulence  Mountain Waves  Volcanic Ashes







- Airport Elevation : 32 ft
- IATA code : NRK


ESSP - Norrköping

CURRENT METAR :
  • 141720Z 23004KT 9999 BKN023 07/06 Q1024

EXPIRED METARs :
  • 141650Z 24005KT 9999 BKN020 07/06 Q1024
  • 141620Z 23005KT 9999 BKN021 07/06 Q1024
  • 141550Z 25007KT 9999 BKN023 08/06 Q1024
  • 141520Z 23005KT 9999 OVC023 08/06 Q1024
  • 141450Z 22005KT 9999 OVC024 08/06 Q1023

TAF TAF ESSP
Valid from the 14 at 15:00 until the 14 at 23:00 UTC


141430Z 1415/1423 26007KT 9999 BKN020
No reported NOTAMs for that airfield.



MET'MAP, your aeronautical weather chart ! - Copyright ORBIFLY December 2007 - Disclaimer

ORBIFLY MET'MAP TEAM :

Programming & Development : Alexandra Zaïnal
Concept & Development : Baudouin d'Aumeries
Co-Development & Prog : Marc-Olivier Méhu
Technical & hardware support : Manuel Goepfert

Contact : metmap@orbifly.com




SOURCES & CREDITS :

   NOAA